Time;durP1;ratioP1;P1;durP2;ratioP2;P2;SDS_P1;SDS_P2;PMS_P1;PMS_P2;Temp;Humidity;BMP_temperature;BMP_pressure;BME280_temperature;BME280_humidity;BME280_pressure;Samples;Min_cycle;Max_cycle;Signal;HPM_P1;HPM_P2
2023/03/18 00:00:38;;;;;;;;;;;;;;;16.15;66.05;100429.97;1272797;23;520;-63
2023/03/18 00:01:29;;;;;;;;;;;;;;;16.16;65.88;100437.03;1274519;23;807;-64
2023/03/18 00:02:20;;;;;;;;;;;;;;;16.16;66.08;100433.50;1272713;23;693;-63
2023/03/18 00:03:11;;;;;;;;;;;;;;;16.16;65.92;100436.19;1272160;23;764;-64
2023/03/18 00:04:01;;;;;;;;;;;;;;;16.17;65.80;100432.50;1272150;23;662;-63
2023/03/18 00:04:51;;;;;;;;;;;;;;;16.19;66.39;100438.59;1272782;23;653;-63
2023/03/18 00:05:42;;;;;;;;;;;;;;;16.17;66.14;100440.56;1272942;23;618;-63
2023/03/18 00:06:32;;;;;;;;;;;;;;;16.17;65.96;100436.03;1272608;23;1877;-63
2023/03/18 00:07:23;;;;;;;;;;;;;;;16.17;66.02;100446.78;1272897;23;673;-63
2023/03/18 00:08:13;;;;;;;;;;;;;;;16.15;65.76;100442.56;1272710;23;622;-63
2023/03/18 00:09:04;;;;;;;;;;;;;;;16.13;66.10;100440.00;1272902;23;645;-64
2023/03/18 00:09:54;;;;;;;;;;;;;;;16.13;66.10;100440.00;1272635;23;626;-64
2023/03/18 00:10:44;;;;;;;;;;;;;;;16.14;66.20;100436.31;1272876;23;696;-63
2023/03/18 00:11:35;;;;;;;;;;;;;;;16.14;66.10;100433.63;1272894;23;677;-63
2023/03/18 00:12:25;;;;;;;;;;;;;;;16.15;66.20;100438.03;1271880;23;749;-63
2023/03/18 00:13:17;;;;;;;;;;;;;;;16.15;65.93;100438.03;1272119;23;666;-63
2023/03/18 00:14:08;;;;;;;;;;;;;;;16.15;66.42;100440.72;1271907;23;626;-63
2023/03/18 00:14:58;;;;;;;;;;;;;;;16.14;65.79;100430.94;1272107;23;661;-63
2023/03/18 00:15:50;;;;;;;;;;;;;;;16.14;65.85;100440.84;1272120;23;692;-63
2023/03/18 00:16:40;;;;;;;;;;;;;;;16.12;66.18;100441.00;1272756;23;625;-63
2023/03/18 00:17:31;;;;;;;;;;;;;;;16.10;65.98;100443.00;1272701;23;680;-63
2023/03/18 00:18:21;;;;;;;;;;;;;;;16.11;65.84;100439.31;1271455;23;610;-63
2023/03/18 00:19:12;;;;;;;;;;;;;;;16.12;66.17;100441.00;1272159;23;696;-63
2023/03/18 00:20:04;;;;;;;;;;;;;;;16.12;66.11;100438.31;1271825;23;531;-63
2023/03/18 00:20:57;;;;;;;;;;;;;;;16.11;65.97;100436.63;1273033;23;688;-63
2023/03/18 00:21:47;;;;;;;;;;;;;;;16.11;66.16;100442.03;1271831;23;621;-63
2023/03/18 00:22:38;;;;;;;;;;;;;;;16.11;66.35;100442.03;1272191;23;680;-62
2023/03/18 00:23:29;;;;;;;;;;;;;;;16.07;65.95;100440.59;1272119;23;669;-64
2023/03/18 00:24:19;;;;;;;;;;;;;;;16.08;65.96;100442.31;1271910;23;626;-63
2023/03/18 00:25:10;;;;;;;;;;;;;;;16.09;66.04;100448.53;1272780;23;665;-64
2023/03/18 00:26:01;;;;;;;;;;;;;;;16.11;65.87;100451.91;1274475;23;610;-63
2023/03/18 00:26:51;;;;;;;;;;;;;;;16.10;66.31;100451.06;1271764;23;669;-63
2023/03/18 00:27:42;;;;;;;;;;;;;;;16.08;65.86;100447.69;1272072;23;630;-63
2023/03/18 00:28:32;;;;;;;;;;;;;;;16.06;66.45;100446.97;1272601;23;629;-63
2023/03/18 00:29:23;;;;;;;;;;;;;;;16.05;66.04;100445.28;1272736;23;645;-64
2023/03/18 00:30:14;;;;;;;;;;;;;;;16.05;66.02;100453.34;1272067;23;653;-63
2023/03/18 00:31:07;;;;;;;;;;;;;;;16.04;65.92;100451.63;1271889;23;609;-63
2023/03/18 00:31:57;;;;;;;;;;;;;;;16.03;65.80;100449.94;1271757;23;672;-64
2023/03/18 00:32:48;;;;;;;;;;;;;;;16.02;66.43;100453.63;1272279;23;638;-63
2023/03/18 00:33:38;;;;;;;;;;;;;;;16.02;65.84;100453.63;1272747;23;635;-64
2023/03/18 00:34:29;;;;;;;;;;;;;;;16.01;65.97;100454.59;1272655;23;728;-64
2023/03/18 00:35:20;;;;;;;;;;;;;;;16.02;66.16;100453.63;1272690;23;638;-64
2023/03/18 00:36:12;;;;;;;;;;;;;;;16.02;65.77;100456.31;1271946;23;654;-63
2023/03/18 00:37:02;;;;;;;;;;;;;;;16.01;66.01;100451.91;1272831;23;700;-64
2023/03/18 00:37:54;;;;;;;;;;;;;;;16.00;65.85;100460.97;1272606;23;622;-64
2023/03/18 00:38:44;;;;;;;;;;;;;;;16.00;66.29;100455.59;1271859;23;661;-63
2023/03/18 00:39:36;;;;;;;;;;;;;;;15.98;65.87;100453.06;1271930;23;661;-63
2023/03/18 00:40:38;;;;;;;;;;;;;;;16.01;65.86;100456.44;1272755;23;630;-63
2023/03/18 00:41:29;;;;;;;;;;;;;;;16.00;66.07;100455.59;1272018;23;641;-63
2023/03/18 00:42:19;;;;;;;;;;;;;;;16.00;66.12;100452.91;1271964;23;645;-63
2023/03/18 00:43:11;;;;;;;;;;;;;;;16.01;66.05;100456.44;1272877;23;618;-63
2023/03/18 00:44:02;;;;;;;;;;;;;;;16.00;66.19;100454.75;1272929;23;649;-64
2023/03/18 00:44:52;;;;;;;;;;;;;;;15.99;66.13;100456.59;1274403;23;638;-63
2023/03/18 00:45:43;;;;;;;;;;;;;;;15.99;66.00;100453.91;1272596;23;724;-64
2023/03/18 00:46:34;;;;;;;;;;;;;;;16.00;65.75;100455.59;1272696;23;1940;-63
2023/03/18 00:47:24;;;;;;;;;;;;;;;16.00;66.47;100458.28;1271212;23;744;-64
2023/03/18 00:48:15;;;;;;;;;;;;;;;16.01;66.05;100456.44;1272148;23;657;-63
2023/03/18 00:49:06;;;;;;;;;;;;;;;15.99;65.73;100459.28;1271975;23;789;-63
2023/03/18 00:49:56;;;;;;;;;;;;;;;15.98;65.95;100454.88;1274509;23;618;-63
2023/03/18 00:50:46;;;;;;;;;;;;;;;16.01;66.23;100461.81;1272649;23;690;-63
2023/03/18 00:51:37;;;;;;;;;;;;;;;16.00;66.24;100457.44;1272078;23;693;-64
2023/03/18 00:52:27;;;;;;;;;;;;;;;15.98;65.79;100462.94;1272760;23;637;-63
2023/03/18 00:53:18;;;;;;;;;;;;;;;15.97;65.95;100455.88;1272860;23;677;-63
2023/03/18 00:54:09;;;;;;;;;;;;;;;15.96;65.78;100454.19;1272812;23;665;-63
2023/03/18 00:54:59;;;;;;;;;;;;;;;15.96;66.42;100459.56;1273638;23;637;-63
2023/03/18 00:55:50;;;;;;;;;;;;;;;15.95;66.27;100464.09;1271957;23;637;-63
2023/03/18 00:56:40;;;;;;;;;;;;;;;15.94;66.45;100462.38;1274325;23;762;-63
2023/03/18 00:57:31;;;;;;;;;;;;;;;15.95;66.06;100452.47;1272607;23;606;-63
2023/03/18 00:58:21;;;;;;;;;;;;;;;15.96;66.21;100456.88;1273446;23;695;-63
2023/03/18 00:59:12;;;;;;;;;;;;;;;15.94;66.05;100451.63;1272677;23;619;-63
2023/03/18 01:00:03;;;;;;;;;;;;;;;15.95;65.83;100460.53;1272682;23;610;-63
2023/03/18 01:00:53;;;;;;;;;;;;;;;15.96;66.62;100459.56;1272736;23;645;-63
2023/03/18 01:01:44;;;;;;;;;;;;;;;15.95;66.18;100458.72;1271388;23;634;-63
2023/03/18 01:02:34;;;;;;;;;;;;;;;15.95;66.20;100452.47;1274420;23;649;-63
2023/03/18 01:03:25;;;;;;;;;;;;;;;15.96;66.02;100446.13;1272878;23;646;-63
2023/03/18 01:04:16;;;;;;;;;;;;;;;15.96;65.87;100454.19;1272710;23;599;-62
2023/03/18 01:05:06;;;;;;;;;;;;;;;15.96;65.83;100459.56;1272763;23;772;-64
2023/03/18 01:05:57;;;;;;;;;;;;;;;15.96;66.16;100451.50;1271765;23;701;-63
2023/03/18 01:06:48;;;;;;;;;;;;;;;15.97;66.17;100447.81;1273116;23;1930;-64
2023/03/18 01:07:38;;;;;;;;;;;;;;;15.96;65.90;100449.66;1273556;23;654;-63
2023/03/18 01:08:29;;;;;;;;;;;;;;;15.97;65.93;100453.19;1272651;23;665;-63
2023/03/18 01:09:19;;;;;;;;;;;;;;;15.96;66.11;100455.03;1271781;23;657;-64
2023/03/18 01:10:10;;;;;;;;;;;;;;;15.96;66.06;100444.28;1271981;23;630;-64
2023/03/18 01:11:00;;;;;;;;;;;;;;;15.96;66.30;100451.50;1274425;23;625;-63
2023/03/18 01:11:50;;;;;;;;;;;;;;;15.96;65.89;100455.03;1272657;23;630;-64
2023/03/18 01:12:41;;;;;;;;;;;;;;;15.96;66.40;100451.50;1272674;23;670;-63
2023/03/18 01:13:32;;;;;;;;;;;;;;;15.96;66.10;100449.66;1271956;23;649;-64
2023/03/18 01:14:22;;;;;;;;;;;;;;;15.95;66.11;100453.34;1274371;23;888;-64
2023/03/18 01:15:12;;;;;;;;;;;;;;;15.95;66.29;100449.81;1272626;23;705;-63
2023/03/18 01:16:03;;;;;;;;;;;;;;;15.93;66.14;100455.34;1272823;23;669;-63
2023/03/18 01:16:53;;;;;;;;;;;;;;;15.94;66.41;100448.13;1272509;23;614;-63
2023/03/18 01:17:44;;;;;;;;;;;;;;;15.94;66.24;100450.81;1272744;23;582;-63
2023/03/18 01:18:35;;;;;;;;;;;;;;;15.94;65.98;100454.31;1272626;23;599;-63
2023/03/18 01:19:25;;;;;;;;;;;;;;;15.93;66.33;100451.81;1271870;23;630;-64
2023/03/18 01:20:16;;;;;;;;;;;;;;;15.94;66.23;100448.13;1272761;23;610;-63
2023/03/18 01:21:07;;;;;;;;;;;;;;;15.92;66.05;100453.66;1271672;23;642;-64
2023/03/18 01:21:58;;;;;;;;;;;;;;;15.90;66.77;100454.78;1271827;23;661;-64
2023/03/18 01:22:49;;;;;;;;;;;;;;;15.90;66.52;100452.94;1271773;23;662;-63
2023/03/18 01:23:39;;;;;;;;;;;;;;;15.92;66.21;100450.13;1271682;23;642;-63
2023/03/18 01:24:30;;;;;;;;;;;;;;;15.92;66.17;100452.78;1272509;23;1102;-63
2023/03/18 01:25:20;;;;;;;;;;;;;;;15.91;66.31;100446.56;1272529;23;614;-64
2023/03/18 01:26:11;;;;;;;;;;;;;;;15.91;66.18;100443.03;1271944;23;630;-63
2023/03/18 01:27:01;;;;;;;;;;;;;;;15.91;66.40;100446.56;1271851;23;634;-64
2023/03/18 01:27:52;;;;;;;;;;;;;;;15.92;66.45;100450.97;1272747;23;638;-63
2023/03/18 01:28:43;;;;;;;;;;;;;;;15.91;66.94;100446.56;1272722;23;666;-64
2023/03/18 01:29:34;;;;;;;;;;;;;;;15.90;66.56;100450.25;1271254;23;623;-64
2023/03/18 01:30:24;;;;;;;;;;;;;;;15.91;66.70;100454.63;1273189;23;669;-64
2023/03/18 01:31:15;;;;;;;;;;;;;;;15.90;66.56;100450.25;1273571;23;707;-64
2023/03/18 01:32:05;;;;;;;;;;;;;;;15.89;66.89;100453.09;1272777;23;681;-64
2023/03/18 01:32:55;;;;;;;;;;;;;;;15.88;66.62;100454.91;1272619;23;681;-64
2023/03/18 01:33:46;;;;;;;;;;;;;;;15.87;67.09;100455.91;1272743;23;634;-64
2023/03/18 01:34:37;;;;;;;;;;;;;;;15.87;66.87;100453.22;1271835;23;657;-64
2023/03/18 01:35:27;;;;;;;;;;;;;;;15.88;66.89;100459.44;1273505;23;716;-64
2023/03/18 01:36:17;;;;;;;;;;;;;;;15.88;67.15;100454.06;1272501;23;649;-64
2023/03/18 01:37:08;;;;;;;;;;;;;;;15.87;67.02;100453.22;1272729;23;681;-63
2023/03/18 01:37:58;;;;;;;;;;;;;;;15.89;66.97;100447.72;1272583;23;630;-64
2023/03/18 01:38:49;;;;;;;;;;;;;;;15.88;67.24;100451.38;1271398;23;650;-63
2023/03/18 01:39:40;;;;;;;;;;;;;;;15.88;67.68;100451.38;1273059;23;606;-63
2023/03/18 01:40:30;;;;;;;;;;;;;;;15.88;67.15;100451.38;1273430;23;665;-64
2023/03/18 01:41:21;;;;;;;;;;;;;;;15.86;67.35;100448.84;1272508;23;614;-63
2023/03/18 01:42:11;;;;;;;;;;;;;;;15.89;67.35;100445.03;1271985;23;641;-64
2023/03/18 01:43:01;;;;;;;;;;;;;;;15.88;67.47;100456.75;1272489;23;606;-64
2023/03/18 01:43:54;;;;;;;;;;;;;;;15.86;67.54;100450.69;1272755;23;681;-64
2023/03/18 01:44:45;;;;;;;;;;;;;;;15.87;67.43;100447.00;1272618;23;630;-63
2023/03/18 01:45:35;;;;;;;;;;;;;;;15.87;67.51;100449.69;1271167;23;641;-63
2023/03/18 01:46:26;;;;;;;;;;;;;;;15.89;67.08;100447.72;1272404;23;1885;-64
2023/03/18 01:47:16;;;;;;;;;;;;;;;15.88;67.60;100451.38;1271990;23;618;-64
2023/03/18 01:48:07;;;;;;;;;;;;;;;15.86;67.36;100451.53;1271876;23;606;-64
2023/03/18 01:48:58;;;;;;;;;;;;;;;15.88;67.37;100451.38;1272792;23;661;-63
2023/03/18 01:49:49;;;;;;;;;;;;;;;15.88;67.43;100452.22;1272568;23;614;-64
2023/03/18 01:50:39;;;;;;;;;;;;;;;15.89;67.40;100450.41;1272825;23;657;-63
2023/03/18 01:51:30;;;;;;;;;;;;;;;15.89;67.76;100450.41;1272482;23;662;-63
2023/03/18 01:52:20;;;;;;;;;;;;;;;15.88;67.28;100444.16;1272009;23;634;-63
2023/03/18 01:53:10;;;;;;;;;;;;;;;15.90;67.19;100452.94;1272590;23;722;-63
2023/03/18 01:54:01;;;;;;;;;;;;;;;15.91;67.25;100445.72;1272764;23;662;-63
2023/03/18 01:54:52;;;;;;;;;;;;;;;15.92;67.13;100448.28;1274363;23;642;-63
2023/03/18 01:55:42;;;;;;;;;;;;;;;15.91;67.32;100448.41;1272374;23;677;-63
2023/03/18 01:56:32;;;;;;;;;;;;;;;15.90;67.19;100452.94;1272459;23;630;-63
2023/03/18 01:57:23;;;;;;;;;;;;;;;15.88;67.21;100454.91;1271890;23;634;-63
2023/03/18 01:58:14;;;;;;;;;;;;;;;15.87;67.13;100453.22;1272577;23;751;-63
2023/03/18 01:59:04;;;;;;;;;;;;;;;15.86;67.33;100451.53;1273489;23;708;-63
2023/03/18 01:59:56;;;;;;;;;;;;;;;15.87;67.18;100457.75;1271336;23;607;-63
2023/03/18 02:00:46;;;;;;;;;;;;;;;15.87;66.96;100452.38;1271586;23;638;-63
2023/03/18 02:01:38;;;;;;;;;;;;;;;15.87;67.29;100447.00;1272622;23;682;-63
2023/03/18 02:02:28;;;;;;;;;;;;;;;15.87;67.31;100453.22;1271593;23;621;-63
2023/03/18 02:03:19;;;;;;;;;;;;;;;15.88;67.07;100456.75;1272727;23;586;-63
2023/03/18 02:04:10;;;;;;;;;;;;;;;15.86;67.11;100454.22;1271651;23;682;-63
2023/03/18 02:05:00;;;;;;;;;;;;;;;15.85;67.18;100457.03;1273086;23;622;-63
2023/03/18 02:05:51;;;;;;;;;;;;;;;15.86;67.22;100461.41;1273499;23;668;-63
2023/03/18 02:06:41;;;;;;;;;;;;;;;15.86;67.14;100453.38;1274159;23;1924;-63
2023/03/18 02:07:33;;;;;;;;;;;;;;;15.87;67.53;100449.69;1271933;23;614;-63
2023/03/18 02:08:23;;;;;;;;;;;;;;;15.87;67.64;100455.06;1272666;23;617;-62
2023/03/18 02:09:13;;;;;;;;;;;;;;;15.87;67.44;100455.06;1272461;23;613;-63
2023/03/18 02:10:04;;;;;;;;;;;;;;;15.87;67.39;100455.91;1272737;23;673;-63
2023/03/18 02:10:54;;;;;;;;;;;;;;;15.87;67.59;100452.38;1272373;23;605;-63
2023/03/18 02:11:45;;;;;;;;;;;;;;;15.88;67.38;100456.75;1271905;23;685;-63
2023/03/18 02:12:35;;;;;;;;;;;;;;;15.87;67.06;100457.75;1272457;23;645;-63
2023/03/18 02:13:26;;;;;;;;;;;;;;;15.87;67.36;100449.69;1272605;23;625;-63
2023/03/18 02:14:16;;;;;;;;;;;;;;;15.86;66.76;100453.38;1271966;23;617;-63
2023/03/18 02:15:09;;;;;;;;;;;;;;;15.86;67.31;100454.22;1272703;23;645;-63
2023/03/18 02:15:59;;;;;;;;;;;;;;;15.86;67.20;100456.91;1271640;23;638;-64
2023/03/18 02:16:50;;;;;;;;;;;;;;;15.86;67.06;100459.59;1274264;23;700;-62
2023/03/18 02:17:40;;;;;;;;;;;;;;;15.88;67.35;100462.13;1274257;23;852;-64
2023/03/18 02:18:31;;;;;;;;;;;;;;;15.87;66.86;100458.59;1272581;23;645;-65
2023/03/18 02:19:21;;;;;;;;;;;;;;;15.87;67.45;100460.44;1272557;23;677;-64
2023/03/18 02:20:11;;;;;;;;;;;;;;;15.86;66.85;100456.03;1271702;23;610;-63
2023/03/18 02:21:02;;;;;;;;;;;;;;;15.86;67.23;100464.09;1271863;23;645;-63
2023/03/18 02:21:52;;;;;;;;;;;;;;;15.85;67.11;100467.78;1274289;23;700;-62
2023/03/18 02:22:43;;;;;;;;;;;;;;;15.84;67.32;100460.72;1272536;23;590;-62
2023/03/18 02:23:33;;;;;;;;;;;;;;;15.86;67.17;100458.75;1272470;23;621;-63
2023/03/18 02:24:24;;;;;;;;;;;;;;;15.86;67.16;100458.75;1272373;23;1244;-62
2023/03/18 02:25:14;;;;;;;;;;;;;;;15.85;67.18;100468.63;1273400;23;668;-63
2023/03/18 02:26:05;;;;;;;;;;;;;;;15.85;67.35;100462.41;1272667;23;630;-63
2023/03/18 02:26:56;;;;;;;;;;;;;;;15.86;66.74;100461.41;1271731;23;630;-63
2023/03/18 02:27:46;;;;;;;;;;;;;;;15.86;67.25;100473.03;1272326;23;614;-62
2023/03/18 02:28:37;;;;;;;;;;;;;;;15.87;67.02;100458.59;1271158;23;630;-63
2023/03/18 02:29:27;;;;;;;;;;;;;;;15.86;67.16;100467.66;1274425;23;704;-63
2023/03/18 02:30:17;;;;;;;;;;;;;;;15.86;66.93;100474.84;1272480;23;678;-63
2023/03/18 02:31:08;;;;;;;;;;;;;;;15.85;67.25;100470.47;1272790;23;638;-64
2023/03/18 02:31:58;;;;;;;;;;;;;;;15.84;67.14;100468.78;1272436;23;685;-64
2023/03/18 02:32:49;;;;;;;;;;;;;;;15.83;67.39;100467.06;1272457;23;641;-64
2023/03/18 02:33:40;;;;;;;;;;;;;;;15.83;67.16;100475.13;1271752;23;613;-64
2023/03/18 02:34:31;;;;;;;;;;;;;;;15.84;66.96;100472.31;1272671;23;633;-63
2023/03/18 02:35:21;;;;;;;;;;;;;;;15.86;67.57;100464.09;1273455;23;835;-63
2023/03/18 02:36:12;;;;;;;;;;;;;;;15.85;66.97;100467.78;1272576;23;642;-64
2023/03/18 02:37:02;;;;;;;;;;;;;;;15.84;67.26;100468.78;1271639;23;630;-64
2023/03/18 02:37:53;;;;;;;;;;;;;;;15.83;67.31;100475.13;1272579;23;649;-64
2023/03/18 02:38:43;;;;;;;;;;;;;;;15.83;67.22;100464.38;1271467;23;641;-64
2023/03/18 02:39:34;;;;;;;;;;;;;;;15.83;67.27;100470.63;1272414;23;598;-64
2023/03/18 02:40:25;;;;;;;;;;;;;;;15.82;67.35;100468.06;1271674;23;661;-64
2023/03/18 02:41:15;;;;;;;;;;;;;;;15.82;67.35;100463.53;1274229;23;680;-64
2023/03/18 02:42:06;;;;;;;;;;;;;;;15.83;67.61;100465.25;1272602;23;666;-64
2023/03/18 02:42:56;;;;;;;;;;;;;;;15.82;67.14;100471.59;1272615;23;661;-64
2023/03/18 02:43:46;;;;;;;;;;;;;;;15.83;67.68;100469.75;1272470;23;638;-64
2023/03/18 02:44:37;;;;;;;;;;;;;;;15.82;67.36;100470.75;1272575;23;801;-64
2023/03/18 02:45:27;;;;;;;;;;;;;;;15.81;67.68;100469.91;1272426;23;635;-64
2023/03/18 02:46:18;;;;;;;;;;;;;;;15.83;67.63;100475.13;1272616;23;692;-63
2023/03/18 02:47:09;;;;;;;;;;;;;;;15.82;67.57;100476.97;1271780;23;646;-64
2023/03/18 02:48:00;;;;;;;;;;;;;;;15.85;67.34;100470.47;1271734;23;618;-64
2023/03/18 02:48:51;;;;;;;;;;;;;;;15.85;67.48;100478.53;1272623;23;626;-64
2023/03/18 02:49:41;;;;;;;;;;;;;;;15.84;67.06;100476.84;1272503;23;626;-64
2023/03/18 02:50:32;;;;;;;;;;;;;;;15.84;67.64;100471.47;1271958;23;823;-64
2023/03/18 02:51:23;;;;;;;;;;;;;;;15.85;67.64;100486.59;1271805;23;633;-64
2023/03/18 02:52:14;;;;;;;;;;;;;;;15.85;67.09;100479.38;1271776;23;614;-64
2023/03/18 02:53:04;;;;;;;;;;;;;;;15.84;67.42;100480.38;1271653;23;614;-64
2023/03/18 02:53:55;;;;;;;;;;;;;;;15.85;67.59;100478.53;1272572;23;688;-64
2023/03/18 02:54:45;;;;;;;;;;;;;;;15.84;67.33;100475.00;1272559;23;622;-64
2023/03/18 02:55:36;;;;;;;;;;;;;;;15.84;67.82;100482.22;1272476;23;623;-64
2023/03/18 02:56:26;;;;;;;;;;;;;;;15.84;67.34;100476.84;1272665;23;611;-64
2023/03/18 02:57:17;;;;;;;;;;;;;;;15.85;67.32;100478.53;1272341;23;622;-64
2023/03/18 02:58:08;;;;;;;;;;;;;;;15.86;67.60;100474.84;1271979;23;689;-64
2023/03/18 02:58:58;;;;;;;;;;;;;;;15.86;67.02;100469.47;1272528;23;645;-64
2023/03/18 02:59:48;;;;;;;;;;;;;;;15.86;67.21;100481.06;1272449;23;625;-64
2023/03/18 03:00:39;;;;;;;;;;;;;;;15.87;67.46;100471.19;1272469;23;936;-64
2023/03/18 03:01:29;;;;;;;;;;;;;;;15.87;67.30;100479.25;1274246;23;610;-64
2023/03/18 03:02:20;;;;;;;;;;;;;;;15.87;67.24;100474.72;1271653;23;676;-64
2023/03/18 03:03:11;;;;;;;;;;;;;;;15.86;66.87;100474.84;1271631;23;623;-64
2023/03/18 03:04:01;;;;;;;;;;;;;;;15.85;67.16;100474.00;1272558;23;692;-64
2023/03/18 03:04:51;;;;;;;;;;;;;;;15.86;67.32;100469.47;1271678;23;781;-64
2023/03/18 03:05:42;;;;;;;;;;;;;;;15.83;67.16;100465.25;1271830;23;701;-64
2023/03/18 03:06:32;;;;;;;;;;;;;;;15.82;67.18;100460.00;1272461;23;1884;-64
2023/03/18 03:07:23;;;;;;;;;;;;;;;15.82;67.37;100465.38;1272581;23;752;-64
2023/03/18 03:08:14;;;;;;;;;;;;;;;15.80;67.31;100464.66;1273333;23;656;-64
2023/03/18 03:09:04;;;;;;;;;;;;;;;15.80;67.65;100470.03;1271850;23;614;-64
2023/03/18 03:09:55;;;;;;;;;;;;;;;15.79;67.19;100479.94;1272491;23;622;-64
2023/03/18 03:10:46;;;;;;;;;;;;;;;15.81;67.34;100477.97;1271741;23;626;-64
2023/03/18 03:11:36;;;;;;;;;;;;;;;15.81;67.65;100471.75;1272435;23;622;-64
2023/03/18 03:12:27;;;;;;;;;;;;;;;15.81;67.48;100477.97;1271891;23;661;-64
2023/03/18 03:13:18;;;;;;;;;;;;;;;15.81;67.24;100472.59;1272451;23;665;-64
2023/03/18 03:14:08;;;;;;;;;;;;;;;15.82;67.21;100468.06;1272696;23;685;-64
2023/03/18 03:14:58;;;;;;;;;;;;;;;15.84;67.62;100476.84;1274287;23;665;-64
2023/03/18 03:15:49;;;;;;;;;;;;;;;15.82;67.07;100474.28;1272583;23;689;-64
2023/03/18 03:16:39;;;;;;;;;;;;;;;15.81;67.54;100477.97;1274164;23;724;-64
2023/03/18 03:17:30;;;;;;;;;;;;;;;15.81;67.52;100477.97;1272506;23;653;-64
2023/03/18 03:18:20;;;;;;;;;;;;;;;15.82;67.30;100481.50;1272426;23;618;-64
2023/03/18 03:19:11;;;;;;;;;;;;;;;15.81;67.33;100480.66;1271706;23;622;-64
2023/03/18 03:20:04;;;;;;;;;;;;;;;15.80;67.15;100475.41;1274231;23;665;-64
2023/03/18 03:20:55;;;;;;;;;;;;;;;15.79;67.44;100476.41;1271856;23;622;-64
2023/03/18 03:21:46;;;;;;;;;;;;;;;15.82;67.21;100476.13;1271466;23;650;-64
2023/03/18 03:22:36;;;;;;;;;;;;;;;15.80;67.24;100486.16;1271512;23;756;-64
2023/03/18 03:23:27;;;;;;;;;;;;;;;15.77;67.59;100479.22;1272479;23;645;-64
2023/03/18 03:24:17;;;;;;;;;;;;;;;15.78;67.15;100477.38;1274265;23;710;-64
2023/03/18 03:25:08;;;;;;;;;;;;;;;15.78;68.00;100482.75;1272486;23;650;-64
2023/03/18 03:25:59;;;;;;;;;;;;;;;15.78;67.51;100480.94;1272508;23;641;-64
2023/03/18 03:26:49;;;;;;;;;;;;;;;15.78;67.67;100480.06;1271777;23;1889;-64
2023/03/18 03:27:40;;;;;;;;;;;;;;;15.78;67.36;100485.44;1274269;23;617;-64
2023/03/18 03:28:31;;;;;;;;;;;;;;;15.78;67.74;100486.31;1272364;23;685;-64
2023/03/18 03:29:22;;;;;;;;;;;;;;;15.79;67.37;100484.47;1271633;23;605;-64
2023/03/18 03:30:12;;;;;;;;;;;;;;;15.79;67.04;100484.47;1272542;23;650;-64
2023/03/18 03:31:02;;;;;;;;;;;;;;;15.79;67.59;100485.31;1272430;23;658;-64
2023/03/18 03:31:53;;;;;;;;;;;;;;;15.78;67.48;100489.00;1272577;23;689;-64
2023/03/18 03:32:43;;;;;;;;;;;;;;;15.76;67.38;100487.47;1273157;23;657;-64
2023/03/18 03:33:34;;;;;;;;;;;;;;;15.74;67.52;100482.22;1272409;23;673;-64
2023/03/18 03:34:24;;;;;;;;;;;;;;;15.75;67.55;100483.06;1271418;23;681;-64
2023/03/18 03:35:15;;;;;;;;;;;;;;;15.76;67.22;100482.09;1271365;23;622;-64
2023/03/18 03:36:05;;;;;;;;;;;;;;;15.75;67.49;100488.44;1272996;23;707;-64
2023/03/18 03:36:56;;;;;;;;;;;;;;;15.76;67.41;100487.47;1273340;23;610;-64
2023/03/18 03:37:46;;;;;;;;;;;;;;;15.75;67.38;100483.94;1272437;23;650;-64
2023/03/18 03:38:37;;;;;;;;;;;;;;;15.78;67.56;100486.31;1271696;23;709;-64
2023/03/18 03:39:27;;;;;;;;;;;;;;;15.76;67.45;100496.38;1272234;23;622;-64
2023/03/18 03:40:19;;;;;;;;;;;;;;;15.75;67.61;100489.31;1272527;23;689;-64
2023/03/18 03:41:10;;;;;;;;;;;;;;;15.74;67.66;100486.75;1272170;23;645;-64
2023/03/18 03:42:00;;;;;;;;;;;;;;;15.73;67.66;100491.28;1271536;23;598;-64
2023/03/18 03:42:51;;;;;;;;;;;;;;;15.73;67.37;100488.59;1272426;23;700;-64
2023/03/18 03:43:41;;;;;;;;;;;;;;;15.73;67.24;100491.28;1273207;23;688;-64
2023/03/18 03:44:32;;;;;;;;;;;;;;;15.74;67.37;100486.75;1271782;23;661;-64
2023/03/18 03:45:23;;;;;;;;;;;;;;;15.74;67.51;100495.66;1271764;23;653;-63
2023/03/18 03:46:14;;;;;;;;;;;;;;;15.75;67.35;100491.13;1271739;23;665;-64
2023/03/18 03:47:05;;;;;;;;;;;;;;;15.74;67.58;100500.19;1273354;23;688;-64
2023/03/18 03:47:56;;;;;;;;;;;;;;;15.74;67.38;100500.19;1273726;23;606;-64
2023/03/18 03:48:46;;;;;;;;;;;;;;;15.74;67.41;100498.34;1272754;23;630;-64
2023/03/18 03:49:37;;;;;;;;;;;;;;;15.75;67.46;100499.19;1272106;23;701;-64
2023/03/18 03:50:27;;;;;;;;;;;;;;;15.75;67.55;100494.69;1274555;23;646;-64
2023/03/18 03:51:18;;;;;;;;;;;;;;;15.75;67.56;100504.56;1272954;23;657;-64
2023/03/18 03:52:08;;;;;;;;;;;;;;;15.76;67.35;100499.06;1273040;23;646;-64
2023/03/18 03:52:59;;;;;;;;;;;;;;;15.76;67.57;100495.53;1272052;23;634;-64
2023/03/18 03:53:49;;;;;;;;;;;;;;;15.77;67.01;100499.88;1272047;23;621;-64
2023/03/18 03:54:40;;;;;;;;;;;;;;;15.77;67.33;100497.19;1272853;23;689;-64
2023/03/18 03:55:31;;;;;;;;;;;;;;;15.75;67.77;100504.56;1271891;23;650;-64
2023/03/18 03:56:21;;;;;;;;;;;;;;;15.73;67.42;100501.16;1272944;23;673;-64
2023/03/18 03:57:12;;;;;;;;;;;;;;;15.74;67.60;100497.50;1272892;23;650;-64
2023/03/18 03:58:03;;;;;;;;;;;;;;;15.75;67.89;100499.19;1272008;23;638;-64
2023/03/18 03:58:53;;;;;;;;;;;;;;;15.75;67.33;100500.03;1272936;23;648;-64
2023/03/18 03:59:44;;;;;;;;;;;;;;;15.75;67.27;100499.19;1272761;23;645;-64
2023/03/18 04:00:35;;;;;;;;;;;;;;;15.76;67.32;100506.28;1271859;23;677;-64
2023/03/18 04:01:26;;;;;;;;;;;;;;;15.76;67.33;100500.91;1272070;23;715;-64
2023/03/18 04:02:16;;;;;;;;;;;;;;;15.73;67.63;100496.66;1272145;23;606;-64
2023/03/18 04:03:06;;;;;;;;;;;;;;;15.73;67.52;100496.66;1274527;23;693;-64
2023/03/18 04:03:57;;;;;;;;;;;;;;;15.74;67.34;100502.88;1272687;23;673;-64
2023/03/18 04:04:47;;;;;;;;;;;;;;;15.74;67.28;100500.19;1274313;23;625;-63
2023/03/18 04:05:38;;;;;;;;;;;;;;;15.75;67.22;100494.69;1272793;23;621;-64
2023/03/18 04:06:28;;;;;;;;;;;;;;;15.75;67.38;100508.09;1272677;23;1897;-64
2023/03/18 04:07:19;;;;;;;;;;;;;;;15.75;67.00;100499.19;1271834;23;630;-63
2023/03/18 04:08:09;;;;;;;;;;;;;;;15.74;67.37;100497.50;1272257;23;626;-64
2023/03/18 04:08:59;;;;;;;;;;;;;;;15.74;67.70;100502.88;1272666;23;658;-64
2023/03/18 04:09:50;;;;;;;;;;;;;;;15.73;67.80;100502.03;1272749;23;684;-63
2023/03/18 04:10:41;;;;;;;;;;;;;;;15.73;67.61;100493.13;1274476;23;652;-64
2023/03/18 04:11:31;;;;;;;;;;;;;;;15.71;67.28;100498.63;1271849;23;630;-64
2023/03/18 04:12:22;;;;;;;;;;;;;;;15.71;67.58;100493.25;1272840;23;650;-64
2023/03/18 04:13:12;;;;;;;;;;;;;;;15.73;67.34;100503.84;1273320;23;692;-63
2023/03/18 04:14:03;;;;;;;;;;;;;;;15.74;67.23;100495.66;1273309;23;637;-64
2023/03/18 04:14:53;;;;;;;;;;;;;;;15.76;67.34;100500.91;1273652;23;684;-63
2023/03/18 04:15:46;;;;;;;;;;;;;;;15.76;67.57;100500.91;1272040;23;617;-64
2023/03/18 04:16:37;;;;;;;;;;;;;;;15.76;67.08;100495.53;1271797;23;614;-63
2023/03/18 04:17:27;;;;;;;;;;;;;;;15.75;67.35;100499.19;1272936;23;665;-64
2023/03/18 04:18:17;;;;;;;;;;;;;;;15.77;67.45;100497.19;1274508;23;637;-64
2023/03/18 04:19:08;;;;;;;;;;;;;;;15.76;66.84;100504.44;1272795;23;638;-64
2023/03/18 04:19:59;;;;;;;;;;;;;;;15.75;67.76;100499.19;1272024;23;700;-64
2023/03/18 04:20:49;;;;;;;;;;;;;;;15.74;67.42;100501.03;1274480;23;771;-64
2023/03/18 04:21:40;;;;;;;;;;;;;;;15.74;67.44;100502.88;1272663;23;669;-64
2023/03/18 04:22:30;;;;;;;;;;;;;;;15.76;67.33;100503.59;1272785;23;658;-64
2023/03/18 04:23:21;;;;;;;;;;;;;;;15.74;67.40;100500.19;1274611;23;566;-64
2023/03/18 04:24:11;;;;;;;;;;;;;;;15.73;67.28;100499.34;1272022;23;763;-64
2023/03/18 04:25:01;;;;;;;;;;;;;;;15.73;67.25;100496.66;1273827;23;622;-64
2023/03/18 04:25:52;;;;;;;;;;;;;;;15.73;67.49;100495.81;1272785;23;760;-64
2023/03/18 04:26:42;;;;;;;;;;;;;;;15.71;67.65;100504.00;1274344;23;1909;-64
2023/03/18 04:27:33;;;;;;;;;;;;;;;15.71;67.68;100498.63;1272731;23;634;-64